createdAt,value
2022-12-12T00:01:12.719Z,101127.38
2022-12-12T00:03:39.275Z,101133.53
2022-12-12T00:06:06.116Z,101142.19
2022-12-12T00:08:33.144Z,101145.19
2022-12-12T00:10:59.718Z,101139.59
2022-12-12T00:13:26.155Z,101137.72
2022-12-12T00:15:52.661Z,101143.59
2022-12-12T00:18:19.149Z,101147.34
2022-12-12T00:20:45.711Z,101151.63
2022-12-12T00:23:12.151Z,101140.88
2022-12-12T00:25:38.585Z,101145.44
2022-12-12T00:28:05.016Z,101151.06
2022-12-12T00:30:31.455Z,101150.78
2022-12-12T00:32:57.933Z,101150.22
2022-12-12T00:35:24.433Z,101154.56
2022-12-12T00:37:51.491Z,101154.59
2022-12-12T00:40:17.941Z,101150.03
2022-12-12T00:42:44.423Z,101145.53
2022-12-12T00:45:11.487Z,101142.38
2022-12-12T00:47:38.185Z,101138.63
2022-12-12T00:50:05.029Z,101144.19
2022-12-12T00:52:31.459Z,101146.84
2022-12-12T00:54:58.057Z,101136.94
2022-12-12T00:57:24.541Z,101139.31
2022-12-12T00:59:51.001Z,101136.44
2022-12-12T01:02:17.427Z,101141.81
2022-12-12T01:04:43.890Z,101137.50
2022-12-12T01:07:10.330Z,101139.09
2022-12-12T01:09:36.789Z,101141.59
2022-12-12T01:12:03.569Z,101142.94
2022-12-12T01:14:30.005Z,101153.97
2022-12-12T01:16:56.445Z,101146.78
2022-12-12T01:19:23.349Z,101157.16
2022-12-12T01:21:49.861Z,101149.97
2022-12-12T01:24:16.331Z,101161.53
2022-12-12T01:26:42.802Z,101158.59
2022-12-12T01:29:09.250Z,101164.81
2022-12-12T01:31:35.793Z,101169.88
2022-12-12T01:34:02.277Z,101173.34
2022-12-12T01:36:28.698Z,101170.16
2022-12-12T01:38:56.939Z,101175.50
2022-12-12T01:41:24.424Z,101181.41
2022-12-12T01:43:51.133Z,101180.59
2022-12-12T01:46:41.296Z,101189.44
2022-12-12T01:49:21.451Z,101186.91
2022-12-12T01:51:49.563Z,101185.31
2022-12-12T01:54:22.167Z,101194.72
2022-12-12T01:56:50.461Z,101186.44
2022-12-12T01:59:20.956Z,101192.63
2022-12-12T02:01:47.781Z,101188.63
2022-12-12T02:04:15.458Z,101185.34
2022-12-12T02:06:42.921Z,101185.13
2022-12-12T02:09:12.394Z,101191.28
2022-12-12T02:11:47.799Z,101189.66
2022-12-12T02:14:22.433Z,101188.56
2022-12-12T02:17:11.527Z,101188.38
2022-12-12T02:19:44.023Z,101195.63
2022-12-12T02:22:36.744Z,101194.91
2022-12-12T02:25:37.147Z,101187.75
2022-12-12T02:28:09.603Z,101193.94
2022-12-12T02:30:55.749Z,101189.41
2022-12-12T02:33:59.764Z,101207.13
2022-12-12T02:36:43.829Z,101210.63
2022-12-12T02:39:35.198Z,101198.88
2022-12-12T02:42:24.733Z,101200.75
2022-12-12T02:45:06.456Z,101209.59
2022-12-12T02:47:39.430Z,101209.31
2022-12-12T02:50:14.005Z,101208.25
2022-12-12T02:52:43.529Z,101209.03
2022-12-12T02:55:10.356Z,101202.38
2022-12-12T02:57:36.967Z,101205.88
2022-12-12T03:00:10.099Z,101210.69
2022-12-12T03:03:27.449Z,101213.91
2022-12-12T03:06:18.246Z,101209.94
2022-12-12T03:09:06.716Z,101205.44
2022-12-12T03:11:48.430Z,101211.81
2022-12-12T03:14:25.941Z,101207.81
2022-12-12T03:17:39.046Z,101204.31
2022-12-12T03:20:26.399Z,101204.34
2022-12-12T03:22:59.525Z,101202.25
2022-12-12T03:25:47.348Z,101208.13
2022-12-12T03:28:21.094Z,101206.00
2022-12-12T03:30:55.209Z,101215.59
2022-12-12T03:33:30.858Z,101210.53
2022-12-12T03:36:10.246Z,101207.59
2022-12-12T03:38:41.534Z,101208.13
2022-12-12T03:41:15.858Z,101213.47
2022-12-12T03:43:53.660Z,101211.88
2022-12-12T03:46:27.173Z,101211.38
2022-12-12T03:49:13.199Z,101211.34
2022-12-12T03:51:45.827Z,101213.50
2022-12-12T03:54:24.786Z,101211.09
2022-12-12T03:57:00.646Z,101222.59
2022-12-12T04:00:05.877Z,101213.78
2022-12-12T04:02:43.055Z,101204.97
2022-12-12T04:05:21.083Z,101216.19
2022-12-12T04:08:02.606Z,101219.66
2022-12-12T04:10:54.571Z,101215.94
2022-12-12T04:13:49.756Z,101226.88
2022-12-12T04:16:33.314Z,101218.34
2022-12-12T04:19:05.738Z,101224.47
2022-12-12T04:22:15.369Z,101227.69
2022-12-12T04:25:02.452Z,101226.09
2022-12-12T04:27:41.269Z,101220.25
2022-12-12T04:30:11.250Z,101224.22
2022-12-12T04:32:57.144Z,101224.78
2022-12-12T04:35:30.908Z,101229.56
2022-12-12T04:38:00.602Z,101230.13
2022-12-12T04:40:36.485Z,101232.50
2022-12-12T04:43:33.864Z,101249.03
2022-12-12T04:46:23.824Z,101244.78
2022-12-12T04:49:03.329Z,101245.03
2022-12-12T04:51:37.339Z,101246.38
2022-12-12T04:54:09.508Z,101237.31
2022-12-12T04:56:38.736Z,101232.75
2022-12-12T04:59:06.705Z,101242.63
2022-12-12T05:01:53.477Z,101231.97
2022-12-12T05:04:37.411Z,101237.03
2022-12-12T05:07:12.292Z,101232.25
2022-12-12T05:09:39.294Z,101231.69
2022-12-12T05:12:05.888Z,101226.63
2022-12-12T05:14:32.639Z,101238.63
2022-12-12T05:17:03.588Z,101234.34
2022-12-12T05:19:30.103Z,101237.28
2022-12-12T05:21:56.597Z,101234.09
2022-12-12T05:24:23.084Z,101236.78
2022-12-12T05:26:49.594Z,101237.56
2022-12-12T05:29:16.025Z,101232.50
2022-12-12T05:31:42.428Z,101230.88
2022-12-12T05:34:10.200Z,101235.41
2022-12-12T05:36:36.611Z,101231.16
2022-12-12T05:39:03.392Z,101239.69
2022-12-12T05:41:29.881Z,101238.59
2022-12-12T05:43:56.426Z,101230.63
2022-12-12T05:46:22.885Z,101239.16
2022-12-12T05:48:50.737Z,101240.47
2022-12-12T05:51:18.343Z,101242.06
2022-12-12T05:53:45.275Z,101241.28
2022-12-12T05:56:12.548Z,101241.50
2022-12-12T05:58:40.425Z,101252.44
2022-12-12T06:01:07.241Z,101248.94
2022-12-12T06:03:34.073Z,101260.16
2022-12-12T06:06:00.595Z,101253.22
2022-12-12T06:08:27.169Z,101263.34
2022-12-12T06:10:53.808Z,101257.22
2022-12-12T06:13:20.252Z,101266.00
2022-12-12T06:15:46.747Z,101258.28
2022-12-12T06:18:13.337Z,101265.22
2022-12-12T06:20:39.780Z,101263.34
2022-12-12T06:23:06.320Z,101271.34
2022-12-12T06:25:32.817Z,101269.50
2022-12-12T06:27:59.414Z,101270.00
2022-12-12T06:30:26.105Z,101270.53
2022-12-12T06:32:52.539Z,101272.16
2022-12-12T06:35:18.987Z,101273.78
2022-12-12T06:37:45.428Z,101270.00
2022-12-12T06:40:12.598Z,101274.78
2022-12-12T06:42:43.241Z,101269.97
2022-12-12T06:45:13.096Z,101278.28
2022-12-12T06:47:40.224Z,101274.28
2022-12-12T06:50:06.923Z,101274.53
2022-12-12T06:52:33.415Z,101278.78
2022-12-12T06:54:59.941Z,101275.53
2022-12-12T06:57:26.999Z,101280.03
2022-12-12T06:59:53.404Z,101269.91
2022-12-12T07:02:23.247Z,101279.78
2022-12-12T07:04:55.354Z,101287.72
2022-12-12T07:07:22.093Z,101292.00
2022-12-12T07:09:48.549Z,101286.13
2022-12-12T07:12:14.998Z,101290.38
2022-12-12T07:14:41.524Z,101293.06
2022-12-12T07:17:08.048Z,101301.34
2022-12-12T07:19:34.533Z,101305.84
2022-12-12T07:22:07.508Z,101301.56
2022-12-12T07:24:36.157Z,101312.72
2022-12-12T07:27:03.487Z,101301.78
2022-12-12T07:29:29.993Z,101316.97
2022-12-12T07:31:56.458Z,101314.84
2022-12-12T07:34:24.249Z,101315.66
2022-12-12T07:36:51.069Z,101316.72
2022-12-12T07:39:20.900Z,101318.09
2022-12-12T07:41:47.843Z,101320.53
2022-12-12T07:44:16.069Z,101329.41
2022-12-12T07:46:42.612Z,101319.53
2022-12-12T07:49:09.151Z,101325.13
2022-12-12T07:51:35.622Z,101326.94
2022-12-12T07:54:02.098Z,101328.22
2022-12-12T07:56:28.619Z,101331.63
2022-12-12T07:58:55.563Z,101330.28
2022-12-12T08:01:25.358Z,101334.84
2022-12-12T08:03:53.398Z,101339.88
2022-12-12T08:06:21.984Z,101339.84
2022-12-12T08:08:49.906Z,101344.94
2022-12-12T08:11:20.353Z,101338.53
2022-12-12T08:13:47.154Z,101343.09
2022-12-12T08:16:16.562Z,101350.28
2022-12-12T08:18:44.293Z,101347.34
2022-12-12T08:21:12.207Z,101348.47
2022-12-12T08:23:40.216Z,101352.47
2022-12-12T08:26:13.215Z,101358.06
2022-12-12T08:28:41.454Z,101355.91
2022-12-12T08:31:08.882Z,101352.94
2022-12-12T08:33:35.702Z,101359.63
2022-12-12T08:36:11.885Z,101367.91
2022-12-12T08:38:38.288Z,101362.06
2022-12-12T08:41:04.912Z,101351.69
2022-12-12T08:43:31.390Z,101365.28
2022-12-12T08:46:01.790Z,101360.78
2022-12-12T08:48:28.765Z,101366.41
2022-12-12T08:50:55.253Z,101361.09
2022-12-12T08:53:21.911Z,101366.16
2022-12-12T08:55:48.463Z,101359.75
2022-12-12T08:58:15.068Z,101362.47
2022-12-12T09:00:41.615Z,101361.47
2022-12-12T09:03:08.151Z,101366.31
2022-12-12T09:05:35.027Z,101362.84
2022-12-12T09:08:01.599Z,101364.22
2022-12-12T09:10:29.028Z,101360.47
2022-12-12T09:12:55.574Z,101369.31
2022-12-12T09:15:22.037Z,101372.25
2022-12-12T09:17:48.541Z,101371.75
2022-12-12T09:20:15.615Z,101373.66
2022-12-12T09:22:42.233Z,101375.03
2022-12-12T09:25:09.512Z,101376.59
2022-12-12T09:27:36.153Z,101373.66
2022-12-12T09:30:02.699Z,101368.06
2022-12-12T09:32:29.142Z,101372.06
2022-12-12T09:34:55.605Z,101374.22
2022-12-12T09:37:22.416Z,101372.63
2022-12-12T09:39:52.059Z,101367.56
2022-12-12T09:42:23.022Z,101375.84
2022-12-12T09:44:50.441Z,101370.75
2022-12-12T09:47:25.234Z,101372.63
2022-12-12T09:49:56.342Z,101375.84
2022-12-12T09:52:34.774Z,101366.22
2022-12-12T09:55:16.245Z,101364.09
2022-12-12T09:58:17.614Z,101368.09
2022-12-12T10:01:04.939Z,101366.22
2022-12-12T10:03:54.500Z,101366.75
2022-12-12T10:06:37.018Z,101361.41
2022-12-12T10:09:12.721Z,101368.63
2022-12-12T10:11:51.927Z,101360.63
2022-12-12T10:14:47.483Z,101348.88
2022-12-12T10:17:25.775Z,101353.41
2022-12-12T10:20:01.709Z,101352.88
2022-12-12T10:22:39.528Z,101353.16
2022-12-12T10:25:08.901Z,101347.81
2022-12-12T10:27:35.345Z,101358.75
2022-12-12T10:30:15.891Z,101355.00
2022-12-12T10:32:53.957Z,101353.44
2022-12-12T10:35:32.697Z,101349.41
2022-12-12T10:38:28.298Z,101339.53
2022-12-12T10:41:10.920Z,101340.59
2022-12-12T10:43:50.408Z,101339.81
2022-12-12T10:46:28.038Z,101345.16
2022-12-12T10:48:55.192Z,101345.41
2022-12-12T10:51:25.780Z,101349.66
2022-12-12T10:53:52.369Z,101341.16
2022-12-12T10:56:22.680Z,101349.97
2022-12-12T10:58:57.323Z,101349.44
2022-12-12T11:02:07.989Z,101342.75
2022-12-12T11:04:20.739Z,101335.53
2022-12-12T11:06:51.100Z,101327.75
2022-12-12T11:09:20.616Z,101326.16
2022-12-12T11:12:09.213Z,101318.41
2022-12-12T11:14:41.323Z,101322.69
2022-12-12T11:17:26.173Z,101318.69
2022-12-12T11:19:55.080Z,101320.81
2022-12-12T11:22:22.094Z,101319.19
2022-12-12T11:24:49.902Z,101322.13
2022-12-12T11:27:31.456Z,101328.47
2022-12-12T11:30:04.356Z,101324.16
2022-12-12T11:32:46.367Z,101324.44
2022-12-12T11:35:32.999Z,101331.94
2022-12-12T11:38:06.013Z,101316.91
2022-12-12T11:40:35.606Z,101324.59
2022-12-12T11:43:25.371Z,101328.00
2022-12-12T11:46:26.268Z,101327.19
2022-12-12T11:48:52.697Z,101321.56
2022-12-12T11:51:31.232Z,101318.03
2022-12-12T11:53:58.159Z,101320.94
2022-12-12T11:56:40.981Z,101310.63
2022-12-12T11:59:35.037Z,101312.94
2022-12-12T12:02:18.903Z,101311.72
2022-12-12T12:05:26.449Z,101306.53
2022-12-12T12:08:05.276Z,101306.50
2022-12-12T12:11:16.198Z,101310.38
2022-12-12T12:13:57.843Z,101312.25
2022-12-12T12:16:39.323Z,101301.50
2022-12-12T12:19:27.522Z,101302.06
2022-12-12T12:22:15.278Z,101313.53
2022-12-12T12:25:03.679Z,101302.25
2022-12-12T12:27:49.861Z,101301.25
2022-12-12T12:30:28.840Z,101301.22
2022-12-12T12:33:18.461Z,101295.09
2022-12-12T12:36:06.178Z,101304.69
2022-12-12T12:38:53.854Z,101305.03
2022-12-12T12:41:30.759Z,101301.06
2022-12-12T12:44:18.230Z,101294.47
2022-12-12T12:47:08.839Z,101301.84
2022-12-12T12:49:44.827Z,101306.31
2022-12-12T12:52:29.476Z,101302.84
2022-12-12T12:54:58.036Z,101313.22
2022-12-12T12:57:30.281Z,101309.75
2022-12-12T13:00:05.598Z,101304.56
2022-12-12T13:02:54.117Z,101290.72
2022-12-12T13:05:26.572Z,101290.97
2022-12-12T13:08:14.827Z,101284.69
2022-12-12T13:10:50.435Z,101281.13
2022-12-12T13:13:30.586Z,101275.41
2022-12-12T13:16:01.530Z,101284.75
2022-12-12T13:18:44.511Z,101283.28
2022-12-12T13:21:26.741Z,101282.56
2022-12-12T13:23:59.157Z,101282.50
2022-12-12T13:26:44.321Z,101281.03
2022-12-12T13:29:28.999Z,101281.41
2022-12-12T13:32:05.442Z,101289.25
2022-12-12T13:34:38.362Z,101296.63
2022-12-12T13:37:06.364Z,101298.91
2022-12-12T13:39:36.602Z,101298.19
2022-12-12T13:42:07.413Z,101294.25
2022-12-12T13:44:39.936Z,101300.66
2022-12-12T13:47:29.458Z,101305.00
2022-12-12T13:49:58.404Z,101299.56
2022-12-12T13:52:27.830Z,101298.97
2022-12-12T13:55:18.514Z,101298.19
2022-12-12T13:57:57.369Z,101297.66
2022-12-12T14:00:25.538Z,101287.16
2022-12-12T14:03:01.299Z,101297.03
2022-12-12T14:05:41.375Z,101287.81
2022-12-12T14:08:07.942Z,101280.22
2022-12-12T14:10:36.165Z,101281.06
2022-12-12T14:13:28.376Z,101284.09
2022-12-12T14:15:57.709Z,101286.72
2022-12-12T14:18:30.856Z,101282.63
2022-12-12T14:21:07.274Z,101282.78
2022-12-12T14:23:48.794Z,101277.47
2022-12-12T14:26:27.633Z,101282.28
2022-12-12T14:29:15.453Z,101278.81
2022-12-12T14:32:07.771Z,101287.47
2022-12-12T14:34:34.173Z,101287.22
2022-12-12T14:37:28.012Z,101284.38
2022-12-12T14:40:12.330Z,101283.72
2022-12-12T14:43:18.757Z,101286.09
2022-12-12T14:45:52.264Z,101287.00
2022-12-12T14:48:18.669Z,101289.81
2022-12-12T14:50:52.573Z,101301.00
2022-12-12T14:53:25.395Z,101303.91
2022-12-12T14:55:57.144Z,101314.88
2022-12-12T14:58:28.232Z,101313.91
2022-12-12T15:00:59.589Z,101326.44
2022-12-12T15:03:33.112Z,101327.25
2022-12-12T15:06:19.561Z,101328.03
2022-12-12T15:08:46.312Z,101329.56
2022-12-12T15:11:14.579Z,101328.44
2022-12-12T15:13:59.643Z,101333.59
2022-12-12T15:16:44.320Z,101333.41
2022-12-12T15:19:22.119Z,101331.47
2022-12-12T15:21:48.774Z,101335.53
2022-12-12T15:24:36.732Z,101336.44
2022-12-12T15:27:03.410Z,101338.53
2022-12-12T15:29:31.897Z,101337.66
2022-12-12T15:32:07.888Z,101333.56
2022-12-12T15:34:38.365Z,101336.88
2022-12-12T15:37:12.467Z,101340.72
2022-12-12T15:39:39.060Z,101335.97
2022-12-12T15:42:06.980Z,101349.72
2022-12-12T15:44:33.700Z,101342.78
2022-12-12T15:47:00.343Z,101347.91
2022-12-12T15:49:41.739Z,101343.97
2022-12-12T15:52:17.804Z,101345.88
2022-12-12T15:54:46.449Z,101348.00
2022-12-12T15:57:18.445Z,101343.78
2022-12-12T15:59:45.623Z,101350.78
2022-12-12T16:02:35.623Z,101341.47
2022-12-12T16:05:22.903Z,101342.56
2022-12-12T16:07:49.522Z,101345.53
2022-12-12T16:10:23.670Z,101349.59
2022-12-12T16:13:18.357Z,101343.97
2022-12-12T16:15:44.881Z,101342.09
2022-12-12T16:18:19.617Z,101346.41
2022-12-12T16:20:52.960Z,101348.53
2022-12-12T16:23:33.157Z,101339.75
2022-12-12T16:25:59.913Z,101339.22
2022-12-12T16:28:29.276Z,101337.34
2022-12-12T16:31:02.122Z,101345.91
2022-12-12T16:33:30.542Z,101352.34
2022-12-12T16:36:00.389Z,101343.00
2022-12-12T16:38:28.443Z,101346.47
2022-12-12T16:40:57.815Z,101346.75
2022-12-12T16:43:24.890Z,101350.22
2022-12-12T16:45:54.092Z,101353.97
2022-12-12T16:48:32.141Z,101355.84
2022-12-12T16:51:02.295Z,101352.63
2022-12-12T16:53:28.942Z,101350.47
2022-12-12T16:55:55.672Z,101355.28
2022-12-12T16:58:22.473Z,101350.22
2022-12-12T17:00:52.794Z,101348.59
2022-12-12T17:03:20.969Z,101351.81
2022-12-12T17:05:48.505Z,101345.69
2022-12-12T17:08:15.999Z,101343.53
2022-12-12T17:10:43.800Z,101349.16
2022-12-12T17:13:16.114Z,101345.94
2022-12-12T17:15:42.572Z,101338.72
2022-12-12T17:18:09.128Z,101340.34
2022-12-12T17:20:37.670Z,101337.91
2022-12-12T17:23:29.455Z,101344.31
2022-12-12T17:26:02.946Z,101338.47
2022-12-12T17:28:31.691Z,101348.34
2022-12-12T17:30:58.235Z,101342.75
2022-12-12T17:33:25.543Z,101345.41
2022-12-12T17:35:59.770Z,101347.78
2022-12-12T17:38:26.542Z,101354.19
2022-12-12T17:40:54.048Z,101354.44
2022-12-12T17:43:20.580Z,101346.94
2022-12-12T17:46:03.627Z,101349.34
2022-12-12T17:48:32.282Z,101349.88
2022-12-12T17:51:00.485Z,101347.50
2022-12-12T17:53:27.556Z,101343.72
2022-12-12T17:56:01.267Z,101347.19
2022-12-12T17:58:36.478Z,101347.19
2022-12-12T18:01:09.936Z,101337.28
2022-12-12T18:03:37.208Z,101337.00
2022-12-12T18:06:03.784Z,101340.25
2022-12-12T18:08:30.443Z,101342.91
2022-12-12T18:10:57.021Z,101339.91
2022-12-12T18:13:23.508Z,101335.88
2022-12-12T18:15:56.684Z,101344.97
2022-12-12T18:18:25.468Z,101342.00
2022-12-12T18:20:53.045Z,101335.09
2022-12-12T18:23:19.933Z,101332.69
2022-12-12T18:25:46.739Z,101330.56
2022-12-12T18:28:13.344Z,101331.13
2022-12-12T18:30:40.636Z,101336.47
2022-12-12T18:33:08.403Z,101333.31
2022-12-12T18:35:34.869Z,101337.00
2022-12-12T18:38:02.062Z,101347.91
2022-12-12T18:40:29.192Z,101347.03
2022-12-12T18:42:55.781Z,101350.16
2022-12-12T18:45:23.925Z,101351.72
2022-12-12T18:47:50.389Z,101350.09
2022-12-12T18:50:17.132Z,101351.13
2022-12-12T18:52:43.657Z,101353.03
2022-12-12T18:55:10.155Z,101350.69
2022-12-12T18:57:36.565Z,101339.75
2022-12-12T19:00:06.599Z,101339.75
2022-12-12T19:02:37.274Z,101348.03
2022-12-12T19:05:05.336Z,101339.69
2022-12-12T19:07:31.851Z,101347.44
2022-12-12T19:09:58.548Z,101344.84
2022-12-12T19:12:24.952Z,101345.88
2022-12-12T19:17:37.843Z,101338.13
2022-12-12T19:20:04.737Z,101348.56
2022-12-12T19:22:45.032Z,101344.25
2022-12-12T19:25:12.475Z,101359.47
2022-12-12T19:27:38.993Z,101348.06
2022-12-12T19:30:06.291Z,101352.06
2022-12-12T19:32:32.883Z,101359.22
2022-12-12T19:34:59.726Z,101351.97
2022-12-12T19:37:26.139Z,101354.25
2022-12-12T19:39:52.935Z,101350.75
2022-12-12T19:42:20.434Z,101353.41
2022-12-12T19:44:46.845Z,101359.63
2022-12-12T19:47:13.409Z,101340.72
2022-12-12T19:49:39.873Z,101352.97
2022-12-12T19:52:12.182Z,101348.41
2022-12-12T19:54:40.419Z,101353.47
2022-12-12T19:57:06.843Z,101354.00
2022-12-12T19:59:33.409Z,101361.72
2022-12-12T20:02:01.011Z,101359.63
2022-12-12T20:04:30.088Z,101363.06
2022-12-12T20:06:56.925Z,101362.53
2022-12-12T20:09:26.633Z,101352.34
2022-12-12T20:11:54.053Z,101355.81
2022-12-12T20:14:22.804Z,101354.97
2022-12-12T20:16:50.657Z,101358.34
2022-12-12T20:19:17.464Z,101360.22
2022-12-12T20:22:02.028Z,101350.88
2022-12-12T20:24:29.912Z,101358.88
2022-12-12T20:26:57.030Z,101353.50
2022-12-12T20:29:23.760Z,101358.81
2022-12-12T20:31:51.300Z,101358.81
2022-12-12T20:34:24.839Z,101360.69
2022-12-12T20:36:52.338Z,101360.44
2022-12-12T20:39:21.272Z,101362.53
2022-12-12T20:41:49.005Z,101360.66
2022-12-12T20:44:15.802Z,101366.06
2022-12-12T20:46:45.246Z,101356.22
2022-12-12T20:49:16.952Z,101358.06
2022-12-12T20:51:59.664Z,101364.16
2022-12-12T20:54:28.537Z,101365.22
2022-12-12T20:56:55.674Z,101363.28
2022-12-12T20:59:22.557Z,101366.78
2022-12-12T21:01:49.099Z,101355.63
2022-12-12T21:04:15.743Z,101365.22
2022-12-12T21:06:44.856Z,101365.94
2022-12-12T21:09:16.358Z,101362.22
2022-12-12T21:11:46.260Z,101360.31
2022-12-12T21:14:12.755Z,101369.91
2022-12-12T21:16:39.601Z,101375.56
2022-12-12T21:19:09.208Z,101368.06
2022-12-12T21:21:36.581Z,101366.78
2022-12-12T21:24:03.270Z,101372.38
2022-12-12T21:26:31.407Z,101375.72
2022-12-12T21:28:59.990Z,101372.72
2022-12-12T21:31:29.833Z,101369.72
2022-12-12T21:33:57.125Z,101372.88
2022-12-12T21:36:25.075Z,101365.44
2022-12-12T21:38:52.878Z,101369.50
2022-12-12T21:41:21.484Z,101365.53
2022-12-12T21:43:48.434Z,101366.81
2022-12-12T21:46:18.622Z,101375.56
2022-12-12T21:48:45.971Z,101376.66
2022-12-12T21:51:16.363Z,101367.63
2022-12-12T21:53:43.096Z,101372.16
2022-12-12T21:56:17.479Z,101372.88
2022-12-12T21:58:46.044Z,101375.03
2022-12-12T22:01:15.657Z,101370.03
2022-12-12T22:03:42.903Z,101359.66
2022-12-12T22:06:16.935Z,101372.16
2022-12-12T22:08:44.369Z,101378.97
2022-12-12T22:11:11.402Z,101377.84
2022-12-12T22:13:40.286Z,101372.84
2022-12-12T22:16:19.340Z,101370.75
2022-12-12T22:18:47.264Z,101378.19
2022-12-12T22:21:18.752Z,101374.84
2022-12-12T22:23:47.442Z,101379.00
2022-12-12T22:26:25.949Z,101376.34
2022-12-12T22:28:54.907Z,101379.09
2022-12-12T22:31:23.257Z,101381.41
2022-12-12T22:34:04.863Z,101373.44
2022-12-12T22:36:34.023Z,101379.81
2022-12-12T22:39:01.302Z,101383.81
2022-12-12T22:41:29.537Z,101381.66
2022-12-12T22:44:04.323Z,101379.72
2022-12-12T22:46:30.871Z,101373.53
2022-12-12T22:49:00.077Z,101375.69
2022-12-12T22:51:31.406Z,101379.34
2022-12-12T22:53:59.992Z,101374.47
2022-12-12T22:56:29.044Z,101375.50
2022-12-12T22:58:55.826Z,101374.97
2022-12-12T23:01:24.381Z,101373.91
2022-12-12T23:03:51.902Z,101375.00
2022-12-12T23:06:21.862Z,101362.34
2022-12-12T23:08:53.393Z,101366.91
2022-12-12T23:11:21.825Z,101367.16
2022-12-12T23:13:48.336Z,101367.47
2022-12-12T23:16:19.955Z,101363.75
2022-12-12T23:18:48.254Z,101359.22
2022-12-12T23:21:17.581Z,101362.41
2022-12-12T23:23:44.599Z,101357.53
2022-12-12T23:26:14.132Z,101360.88
2022-12-12T23:28:41.678Z,101349.13
2022-12-12T23:31:16.755Z,101348.94
2022-12-12T23:33:43.191Z,101344.41
2022-12-12T23:36:11.512Z,101345.78
2022-12-12T23:38:38.509Z,101339.22
2022-12-12T23:41:06.521Z,101353.13
2022-12-12T23:43:33.743Z,101338.75
2022-12-12T23:46:05.365Z,101344.88
2022-12-12T23:48:32.313Z,101335.31
2022-12-12T23:50:59.379Z,101339.28
2022-12-12T23:53:27.275Z,101349.56
2022-12-12T23:55:53.806Z,101344.50
2022-12-12T23:58:20.363Z,101346.03
